Time;durP1;ratioP1;P1;durP2;ratioP2;P2;SDS_P1;SDS_P2;PMS_P1;PMS_P2;Temp;Humidity;BMP_temperature;BMP_pressure;BME280_temperature;BME280_humidity;BME280_pressure;Samples;Min_cycle;Max_cycle;Signal;HPM_P1;HPM_P2
2022/03/03 00:01:35;;;;;;;0.20;0.20;;;-0.20;99.90;;;;;;5017918;28;20195;-70
2022/03/03 00:04:03;;;;;;;0.20;0.20;;;-0.20;99.90;;;;;;5017167;28;20218;-69
2022/03/03 00:06:31;;;;;;;0.20;0.20;;;-0.20;99.90;;;;;;5022847;28;20241;-69
2022/03/03 00:08:58;;;;;;;0.20;0.20;;;-0.30;99.90;;;;;;5038173;28;20222;-68
2022/03/03 00:11:25;;;;;;;0.20;0.20;;;-0.30;99.90;;;;;;5035094;28;20215;-70
2022/03/03 00:13:52;;;;;;;0.20;0.20;;;-0.30;99.90;;;;;;5014222;28;20200;-67
2022/03/03 00:16:19;;;;;;;0.20;0.20;;;-0.30;99.90;;;;;;5017211;28;20207;-66
2022/03/03 00:18:46;;;;;;;0.20;0.20;;;-0.30;99.90;;;;;;5044133;28;20219;-68
2022/03/03 00:21:14;;;;;;;0.20;0.20;;;-0.30;99.90;;;;;;5020342;28;20211;-69
2022/03/03 00:23:43;;;;;;;0.20;0.20;;;-0.30;99.90;;;;;;5019385;28;20281;-70
2022/03/03 00:26:10;;;;;;;0.20;0.20;;;-0.30;99.90;;;;;;5035771;28;20207;-68
2022/03/03 00:28:37;;;;;;;0.20;0.20;;;-0.40;99.90;;;;;;5017084;28;20239;-67
2022/03/03 00:31:05;;;;;;;0.20;0.20;;;-0.40;99.90;;;;;;5038280;28;20234;-67
2022/03/03 00:33:32;;;;;;;0.20;0.20;;;-0.40;99.90;;;;;;5012732;28;20207;-67
2022/03/03 00:35:59;;;;;;;0.30;0.30;;;-0.40;99.90;;;;;;5030052;28;20238;-67
2022/03/03 00:38:26;;;;;;;0.20;0.20;;;-0.50;99.90;;;;;;5039887;28;20213;-67
2022/03/03 00:40:54;;;;;;;0.20;0.20;;;-0.50;99.90;;;;;;5023716;28;20214;-66
2022/03/03 00:43:22;;;;;;;0.20;0.20;;;-0.60;99.90;;;;;;5040416;28;20212;-67
2022/03/03 00:45:49;;;;;;;0.10;0.10;;;;;;;;;;5037769;28;20297;-69
2022/03/03 00:48:16;;;;;;;0.20;0.20;;;;;;;;;;5022433;28;20227;-69
2022/03/03 00:50:44;;;;;;;0.20;0.20;;;;;;;;;;5040990;28;20195;-69
2022/03/03 00:53:11;;;;;;;0.20;0.20;;;;;;;;;;5039150;28;20195;-70
2022/03/03 00:55:38;;;;;;;0.20;0.20;;;;;;;;;;5036104;28;20733;-70
2022/03/03 00:58:07;;;;;;;0.20;0.20;;;;;;;;;;5041069;28;20227;-69
2022/03/03 01:00:34;;;;;;;0.20;0.20;;;;;;;;;;5031907;28;20200;-70
2022/03/03 01:03:01;;;;;;;0.20;0.20;;;;;;;;;;5014642;28;20286;-70
2022/03/03 01:05:29;;;;;;;0.20;0.20;;;;;;;;;;5020972;28;20199;-70
2022/03/03 01:07:56;;;;;;;0.30;0.30;;;;;;;;;;5038757;28;20220;-70
2022/03/03 01:10:24;;;;;;;0.20;0.20;;;;;;;;;;5029127;28;20210;-70
2022/03/03 01:12:51;;;;;;;0.20;0.20;;;;;;;;;;5014861;28;20211;-69
2022/03/03 01:15:20;;;;;;;0.20;0.20;;;;;;;;;;5017879;28;20197;-70
2022/03/03 01:17:48;;;;;;;0.20;0.20;;;;;;;;;;5017820;28;20227;-68
2022/03/03 01:20:15;;;;;;;0.20;0.20;;;;;;;;;;5027620;28;20192;-70
2022/03/03 01:22:42;;;;;;;0.20;0.20;;;;;;;;;;5015481;28;20226;-68
2022/03/03 01:25:09;;;;;;;0.20;0.20;;;-0.60;99.90;;;;;;5041284;28;20229;-66
2022/03/03 01:27:38;;;;;;;0.25;0.25;;;-0.80;99.90;;;;;;5049684;23;20230;-66
2022/03/03 01:30:06;;;;;;;0.22;0.22;;;-0.90;99.90;;;;;;5084313;28;20225;-68
2022/03/03 01:32:35;;;;;;;0.25;0.25;;;;;;;;;;5064302;28;20202;-67
2022/03/03 01:35:02;;;;;;;0.20;0.20;;;-0.90;99.90;;;;;;5064049;28;20200;-67
2022/03/03 01:37:29;;;;;;;0.20;0.20;;;-1.00;99.90;;;;;;5063341;28;20299;-67
2022/03/03 01:39:57;;;;;;;0.30;0.30;;;-1.00;99.90;;;;;;5040890;28;20199;-67
2022/03/03 01:42:23;;;;;;;0.20;0.20;;;-1.00;99.90;;;;;;5039303;28;20203;-68
2022/03/03 01:44:50;;;;;;;0.20;0.20;;;-1.00;99.90;;;;;;5037715;28;20310;-68
2022/03/03 01:47:19;;;;;;;0.20;0.20;;;-1.10;99.90;;;;;;5059019;28;20226;-69
2022/03/03 01:49:49;;;;;;;0.20;0.20;;;-1.10;99.90;;;;;;5028712;28;20222;-68
2022/03/03 01:52:17;;;;;;;0.20;0.20;;;-1.10;99.90;;;;;;5037086;28;20203;-67
2022/03/03 01:54:44;;;;;;;0.20;0.20;;;-1.10;99.90;;;;;;5058623;28;20231;-67
2022/03/03 01:57:11;;;;;;;0.20;0.20;;;-1.10;99.90;;;;;;5057024;28;20198;-68
2022/03/03 01:59:39;;;;;;;0.20;0.20;;;-1.10;99.90;;;;;;5056067;28;20224;-70
2022/03/03 02:02:08;;;;;;;0.20;0.20;;;-1.10;99.90;;;;;;5046714;28;20204;-70
2022/03/03 02:04:35;;;;;;;0.20;0.20;;;-1.10;99.90;;;;;;5036623;28;20250;-70
2022/03/03 02:07:04;;;;;;;0.20;0.20;;;-1.10;99.90;;;;;;5041872;28;20209;-70
2022/03/03 02:09:31;;;;;;;0.20;0.20;;;-1.10;99.90;;;;;;5034914;28;20213;-70
2022/03/03 02:11:58;;;;;;;0.20;0.20;;;-1.10;99.90;;;;;;5035641;28;20213;-71
2022/03/03 02:14:25;;;;;;;0.20;0.20;;;-1.10;99.90;;;;;;5056970;28;20332;-69
2022/03/03 02:16:53;;;;;;;0.20;0.20;;;;;;;;;;5036235;28;20211;-67
2022/03/03 02:19:21;;;;;;;0.20;0.20;;;;;;;;;;5033363;28;20229;-67
2022/03/03 02:21:50;;;;;;;0.20;0.20;;;;;;;;;;5051061;28;20277;-68
2022/03/03 02:24:19;;;;;;;0.20;0.20;;;;;;;;;;5039652;28;20222;-70
2022/03/03 02:26:47;;;;;;;0.17;0.17;;;;;;;;;;5042415;28;20320;-69
2022/03/03 02:29:16;;;;;;;0.20;0.20;;;;;;;;;;5041111;28;20236;-69
2022/03/03 02:31:44;;;;;;;0.20;0.20;;;;;;;;;;5029583;28;20198;-71
2022/03/03 02:34:12;;;;;;;0.20;0.20;;;;;;;;;;5036008;28;20199;-70
2022/03/03 02:36:39;;;;;;;0.20;0.20;;;;;;;;;;5047811;28;20268;-68
2022/03/03 02:39:08;;;;;;;0.20;0.20;;;;;;;;;;5035470;28;20230;-70
2022/03/03 02:41:37;;;;;;;0.20;0.20;;;;;;;;;;5043198;28;20209;-70
2022/03/03 02:44:05;;;;;;;0.20;0.20;;;;;;;;;;5052513;28;20711;-69
2022/03/03 02:46:32;;;;;;;0.20;0.20;;;;;;;;;;5056132;28;20202;-71
2022/03/03 02:48:59;;;;;;;0.20;0.20;;;;;;;;;;5043594;28;20222;-67
2022/03/03 02:51:27;;;;;;;0.20;0.20;;;;;;;;;;5057919;28;20268;-67
2022/03/03 02:53:54;;;;;;;0.20;0.20;;;;;;;;;;5063263;28;20207;-67
2022/03/03 02:56:23;;;;;;;0.20;0.20;;;;;;;;;;5061593;28;20205;-67
2022/03/03 02:58:50;;;;;;;0.20;0.20;;;;;;;;;;5061601;28;20230;-67
2022/03/03 03:01:17;;;;;;;0.28;0.28;;;;;;;;;;5061188;28;20666;-69
2022/03/03 03:03:44;;;;;;;0.20;0.20;;;;;;;;;;5036303;28;20200;-69
2022/03/03 03:06:14;;;;;;;0.20;0.20;;;;;;;;;;5045933;28;20237;-69
2022/03/03 03:08:42;;;;;;;0.22;0.22;;;-1.20;99.90;;;;;;5041934;28;20234;-69
2022/03/03 03:11:09;;;;;;;0.20;0.20;;;-1.30;99.90;;;;;;5063590;28;20226;-71
2022/03/03 03:13:37;;;;;;;0.20;0.20;;;-1.30;99.90;;;;;;5060869;28;20198;-69
2022/03/03 03:16:04;;;;;;;0.20;0.20;;;-1.30;99.90;;;;;;5066582;28;20234;-68
2022/03/03 03:18:31;;;;;;;0.20;0.20;;;-1.40;99.90;;;;;;5045658;28;20233;-70
2022/03/03 03:20:58;;;;;;;0.20;0.20;;;-1.50;99.90;;;;;;5064825;28;20215;-69
2022/03/03 03:23:25;;;;;;;0.20;0.20;;;-1.30;99.90;;;;;;5041114;28;20238;-70
2022/03/03 03:25:53;;;;;;;0.20;0.20;;;-1.40;99.90;;;;;;5045273;28;20219;-70
2022/03/03 03:28:21;;;;;;;0.20;0.20;;;-1.30;99.90;;;;;;5042187;28;20229;-67
2022/03/03 03:30:49;;;;;;;0.20;0.20;;;-1.40;99.90;;;;;;5048795;28;20240;-68
2022/03/03 03:33:17;;;;;;;0.20;0.20;;;-1.40;99.90;;;;;;5047436;28;20198;-68
2022/03/03 03:35:44;;;;;;;0.10;0.10;;;-1.40;99.90;;;;;;5048807;28;20248;-70
2022/03/03 03:38:11;;;;;;;0.20;0.20;;;-1.40;99.90;;;;;;5039772;28;20218;-69
2022/03/03 03:40:38;;;;;;;0.20;0.20;;;-1.50;99.90;;;;;;5037001;28;20202;-69
2022/03/03 03:43:05;;;;;;;0.20;0.20;;;-1.50;99.90;;;;;;5040969;28;20268;-69
2022/03/03 03:45:34;;;;;;;0.20;0.20;;;-1.60;99.90;;;;;;5061139;28;20226;-70
2022/03/03 03:48:02;;;;;;;0.20;0.20;;;-1.70;99.90;;;;;;5040144;28;20251;-69
2022/03/03 03:50:29;;;;;;;0.20;0.20;;;-1.70;99.90;;;;;;5040305;28;20194;-67
2022/03/03 03:52:56;;;;;;;0.25;0.25;;;-1.70;99.90;;;;;;5062222;28;20202;-69
2022/03/03 03:55:23;;;;;;;0.20;0.20;;;-1.60;99.90;;;;;;5045041;28;20191;-70
2022/03/03 03:57:50;;;;;;;0.20;0.20;;;-1.60;99.90;;;;;;5033686;28;20222;-71
2022/03/03 04:00:18;;;;;;;0.20;0.20;;;-1.60;99.90;;;;;;5063424;28;20194;-69
2022/03/03 04:02:45;;;;;;;0.20;0.20;;;-1.60;99.90;;;;;;5046907;28;20217;-69
2022/03/03 04:05:15;;;;;;;0.25;0.25;;;;;;;;;;5042025;28;20257;-70
2022/03/03 04:07:43;;;;;;;0.22;0.22;;;;;;;;;;5035721;28;20214;-70
2022/03/03 04:10:11;;;;;;;0.20;0.20;;;;;;;;;;5056133;28;20256;-67
2022/03/03 04:12:38;;;;;;;0.20;0.20;;;;;;;;;;5053123;28;20199;-66
2022/03/03 04:15:06;;;;;;;0.20;0.20;;;;;;;;;;5034969;28;20195;-67
2022/03/03 04:17:33;;;;;;;0.20;0.20;;;;;;;;;;5024184;28;20219;-69
2022/03/03 04:20:01;;;;;;;0.30;0.30;;;;;;;;;;5032855;28;20229;-71
2022/03/03 04:22:29;;;;;;;0.20;0.20;;;;;;;;;;5035984;28;20202;-69
2022/03/03 04:24:57;;;;;;;0.25;0.25;;;;;;;;;;5046572;28;20762;-69
2022/03/03 04:27:24;;;;;;;0.20;0.20;;;-1.90;99.90;;;;;;5030090;28;20655;-69
2022/03/03 04:29:51;;;;;;;0.20;0.20;;;-2.00;99.90;;;;;;5035157;28;20199;-71
2022/03/03 04:32:18;;;;;;;0.20;0.20;;;-1.90;99.90;;;;;;5040217;28;20210;-69
2022/03/03 04:34:45;;;;;;;0.20;0.20;;;-2.00;99.90;;;;;;5029450;28;20211;-71
2022/03/03 04:37:13;;;;;;;0.20;0.20;;;-2.00;99.90;;;;;;5050318;28;20198;-68
2022/03/03 04:39:42;;;;;;;0.20;0.20;;;-1.80;99.90;;;;;;5028434;28;20210;-69
2022/03/03 04:42:09;;;;;;;0.20;0.20;;;-1.80;99.90;;;;;;5030455;28;20191;-70
2022/03/03 04:44:36;;;;;;;0.20;0.20;;;-1.80;99.90;;;;;;5036329;28;20248;-71
2022/03/03 04:47:03;;;;;;;0.20;0.20;;;-1.90;99.90;;;;;;5054762;28;20264;-67
2022/03/03 04:49:31;;;;;;;0.22;0.22;;;-1.80;99.90;;;;;;5055338;28;20190;-69
2022/03/03 04:51:58;;;;;;;0.20;0.20;;;-1.80;99.90;;;;;;5039927;28;20237;-70
2022/03/03 04:54:25;;;;;;;0.20;0.20;;;-1.80;99.90;;;;;;5049529;28;20206;-70
2022/03/03 04:56:54;;;;;;;0.20;0.20;;;-1.70;99.90;;;;;;5030821;28;20203;-70
2022/03/03 04:59:23;;;;;;;0.30;0.30;;;-1.90;99.90;;;;;;5050005;28;20589;-69
2022/03/03 05:01:50;;;;;;;0.28;0.28;;;;;;;;;;5036039;28;20261;-69
2022/03/03 05:04:18;;;;;;;0.10;0.10;;;;;;;;;;5037435;28;20206;-69
2022/03/03 05:06:45;;;;;;;0.20;0.20;;;-1.90;99.90;;;;;;5048297;28;20268;-69
2022/03/03 05:09:12;;;;;;;0.20;0.20;;;-1.90;99.90;;;;;;5053448;28;20306;-69
2022/03/03 05:11:39;;;;;;;0.20;0.20;;;-1.80;99.90;;;;;;5041986;28;20195;-70
2022/03/03 05:14:08;;;;;;;0.20;0.20;;;-1.90;99.90;;;;;;5049389;28;20203;-71
2022/03/03 05:16:35;;;;;;;0.30;0.30;;;-1.90;99.90;;;;;;5063503;28;20196;-72
2022/03/03 05:19:02;;;;;;;0.20;0.20;;;-1.90;99.90;;;;;;5044722;28;20220;-71
2022/03/03 05:21:30;;;;;;;0.20;0.20;;;-1.80;99.90;;;;;;5042257;28;20198;-70
2022/03/03 05:23:57;;;;;;;0.20;0.20;;;-1.90;99.90;;;;;;5043960;28;20201;-70
2022/03/03 05:26:24;;;;;;;0.20;0.20;;;-1.80;99.90;;;;;;5040445;28;20219;-70
2022/03/03 05:28:51;;;;;;;0.20;0.20;;;-1.90;99.90;;;;;;5047375;28;20232;-70
2022/03/03 05:31:20;;;;;;;0.20;0.20;;;-1.90;99.90;;;;;;5038349;28;20202;-73
2022/03/03 05:33:47;;;;;;;0.30;0.30;;;-1.90;99.90;;;;;;5054583;28;20231;-71
2022/03/03 05:36:14;;;;;;;0.20;0.20;;;-1.90;99.90;;;;;;5056761;28;20209;-70
2022/03/03 05:38:41;;;;;;;0.30;0.30;;;-1.70;99.90;;;;;;5058036;28;20222;-71
2022/03/03 05:41:08;;;;;;;0.20;0.20;;;-1.70;99.90;;;;;;5051655;28;20234;-68
2022/03/03 05:43:36;;;;;;;0.40;0.40;;;-1.70;99.90;;;;;;5037812;28;20217;-65
2022/03/03 05:46:04;;;;;;;0.20;0.20;;;-1.70;99.90;;;;;;5042343;28;20277;-67
2022/03/03 05:48:32;;;;;;;0.20;0.20;;;-1.70;99.90;;;;;;5058822;28;20211;-66
2022/03/03 05:50:59;;;;;;;0.20;0.20;;;-1.80;99.90;;;;;;5038338;28;20207;-67
2022/03/03 05:53:27;;;;;;;0.20;0.20;;;-1.70;99.90;;;;;;5039149;28;20260;-66
2022/03/03 05:55:56;;;;;;;0.30;0.30;;;-1.80;99.90;;;;;;5052805;28;20203;-66
2022/03/03 05:58:26;;;;;;;0.30;0.30;;;-1.60;99.90;;;;;;5036917;28;20318;-67
2022/03/03 06:00:57;;;;;;;0.30;0.30;;;-1.60;99.90;;;;;;5039351;28;20199;-66
2022/03/03 06:03:25;;;;;;;0.30;0.30;;;-1.70;99.90;;;;;;5043544;28;20198;-66
2022/03/03 06:05:58;;;;;;;0.22;0.22;;;-1.70;99.90;;;;;;5032594;28;20227;-68
2022/03/03 06:08:32;;;;;;;0.20;0.20;;;-1.60;99.90;;;;;;5035005;28;20219;-64
2022/03/03 06:11:02;;;;;;;0.20;0.20;;;-1.60;99.90;;;;;;5040758;28;20285;-65
2022/03/03 06:13:36;;;;;;;0.20;0.20;;;-1.80;99.90;;;;;;5034751;28;20203;-65
2022/03/03 06:16:05;;;;;;;0.20;0.20;;;-1.70;99.90;;;;;;5031213;28;20795;-69
2022/03/03 06:18:33;;;;;;;0.20;0.20;;;-1.80;99.90;;;;;;5033114;28;20246;-65
2022/03/03 06:21:01;;;;;;;0.30;0.30;;;-1.80;99.90;;;;;;5050308;28;20235;-65
2022/03/03 06:23:29;;;;;;;0.20;0.20;;;-1.80;99.90;;;;;;5033011;28;20271;-65
2022/03/03 06:26:02;;;;;;;0.20;0.20;;;-1.70;99.90;;;;;;5036389;28;20242;-69
2022/03/03 06:28:29;;;;;;;0.20;0.20;;;-1.50;99.90;;;;;;5050667;28;20666;-68
2022/03/03 06:30:56;;;;;;;0.28;0.28;;;-1.60;99.90;;;;;;5032560;28;20199;-68
2022/03/03 06:33:25;;;;;;;0.20;0.20;;;-1.50;99.90;;;;;;5038600;28;20252;-69
2022/03/03 06:35:52;;;;;;;0.20;0.20;;;-1.50;99.90;;;;;;5054877;28;20199;-68
2022/03/03 06:38:20;;;;;;;0.20;0.20;;;-1.40;99.90;;;;;;5053385;28;20218;-65
2022/03/03 06:40:47;;;;;;;0.20;0.20;;;-1.40;99.90;;;;;;5036769;28;20194;-66
2022/03/03 06:43:14;;;;;;;0.20;0.20;;;-1.30;99.90;;;;;;5039179;28;20263;-65
2022/03/03 06:45:41;;;;;;;0.20;0.20;;;-1.20;99.90;;;;;;5052985;28;20223;-70
2022/03/03 06:48:09;;;;;;;0.30;0.30;;;-1.10;99.90;;;;;;5038900;28;20272;-67
2022/03/03 06:50:37;;;;;;;0.20;0.20;;;-0.90;99.90;;;;;;5056935;28;20219;-70
2022/03/03 06:53:06;;;;;;;0.20;0.20;;;-1.00;99.90;;;;;;5061785;28;20208;-65
2022/03/03 06:55:35;;;;;;;0.20;0.20;;;-1.00;99.90;;;;;;5039725;28;20198;-65
2022/03/03 06:58:02;;;;;;;0.10;0.10;;;-1.00;99.90;;;;;;5038133;28;20582;-67
2022/03/03 07:00:34;;;;;;;0.20;0.20;;;-1.00;99.90;;;;;;5038297;28;20309;-65
2022/03/03 07:03:02;;;;;;;0.20;0.20;;;-0.90;99.90;;;;;;5040476;28;20233;-67
2022/03/03 07:05:30;;;;;;;0.25;0.25;;;-1.00;99.90;;;;;;5040786;28;20296;-68
2022/03/03 07:07:57;;;;;;;0.25;0.25;;;-0.70;99.90;;;;;;5055624;28;20215;-67
2022/03/03 07:10:25;;;;;;;0.22;0.22;;;-0.50;99.90;;;;;;5052775;28;20207;-70
2022/03/03 07:12:54;;;;;;;0.20;0.20;;;-0.40;99.90;;;;;;5040562;28;20208;-68
2022/03/03 07:15:22;;;;;;;0.20;0.20;;;-0.20;99.90;;;;;;5053644;28;20198;-67
2022/03/03 07:17:51;;;;;;;0.20;0.20;;;0.00;99.90;;;;;;5036046;28;20308;-69
2022/03/03 07:20:28;;;;;;;0.20;0.20;;;0.30;99.90;;;;;;5043786;28;20194;-67
2022/03/03 07:23:02;;;;;;;0.20;0.20;;;0.50;99.90;;;;;;5035767;28;20230;-68
2022/03/03 07:25:39;;;;;;;0.20;0.20;;;0.80;99.90;;;;;;5040060;28;20220;-68
2022/03/03 07:28:11;;;;;;;0.30;0.30;;;0.90;99.90;;;;;;5043721;28;20231;-67
2022/03/03 07:30:44;;;;;;;0.20;0.20;;;1.20;99.90;;;;;;5054435;28;20202;-67
2022/03/03 07:33:13;;;;;;;0.20;0.20;;;1.30;99.90;;;;;;5053354;28;20195;-65
2022/03/03 07:35:43;;;;;;;0.20;0.20;;;1.60;99.90;;;;;;5057119;28;20194;-66
2022/03/03 07:38:15;;;;;;;0.30;0.30;;;1.80;99.90;;;;;;5031714;28;20247;-65
2022/03/03 07:40:43;;;;;;;0.10;0.10;;;2.00;99.90;;;;;;5052450;28;20194;-66
2022/03/03 07:43:14;;;;;;;0.20;0.20;;;2.10;99.90;;;;;;5038623;28;20210;-66
2022/03/03 07:45:42;;;;;;;0.20;0.20;;;2.30;99.90;;;;;;5037755;28;20223;-66
2022/03/03 07:48:11;;;;;;;0.20;0.20;;;2.50;99.90;;;;;;5040829;28;20985;-66
2022/03/03 07:50:40;;;;;;;0.20;0.20;;;2.60;99.90;;;;;;5053082;28;20658;-69
2022/03/03 07:53:10;;;;;;;0.20;0.20;;;2.80;99.90;;;;;;5038543;28;20617;-64
2022/03/03 07:55:42;;;;;;;0.20;0.20;;;;;;;;;;5047758;28;20670;-63
2022/03/03 07:58:15;;;;;;;0.20;0.20;;;2.90;99.90;;;;;;5056601;28;20632;-66
2022/03/03 08:00:47;;;;;;;0.20;0.20;;;3.30;99.90;;;;;;5034787;28;20695;-66
2022/03/03 08:03:17;;;;;;;0.20;0.20;;;3.40;99.90;;;;;;5062124;28;20619;-66
2022/03/03 08:05:45;;;;;;;0.20;0.20;;;3.50;99.90;;;;;;5034881;28;20755;-67
2022/03/03 08:08:15;;;;;;;0.20;0.20;;;3.60;99.90;;;;;;5038747;28;20771;-68
2022/03/03 08:10:43;;;;;;;0.20;0.20;;;3.60;99.90;;;;;;5028280;28;20680;-67
2022/03/03 08:13:12;;;;;;;0.20;0.20;;;3.50;99.90;;;;;;5055100;28;20622;-68
2022/03/03 08:15:41;;;;;;;0.20;0.20;;;3.40;99.90;;;;;;5047612;28;20969;-67
2022/03/03 08:18:09;;;;;;;0.20;0.20;;;3.50;99.90;;;;;;5056660;28;20644;-68
2022/03/03 08:20:38;;;;;;;0.10;0.10;;;3.40;99.90;;;;;;5032137;28;20701;-69
2022/03/03 08:23:06;;;;;;;0.20;0.20;;;3.50;99.90;;;;;;5037588;28;20725;-67
2022/03/03 08:25:34;;;;;;;0.20;0.20;;;3.50;99.90;;;;;;5033888;28;20753;-67
2022/03/03 08:28:03;;;;;;;0.20;0.20;;;3.60;99.90;;;;;;5045711;28;20652;-67
2022/03/03 08:30:30;;;;;;;0.20;0.20;;;3.40;99.90;;;;;;5034561;28;20617;-65
2022/03/03 08:33:03;;;;;;;0.10;0.10;;;3.50;99.90;;;;;;5041317;28;20614;-63
2022/03/03 08:35:36;;;;;;;0.20;0.20;;;3.70;99.90;;;;;;5047044;28;20665;-67
2022/03/03 08:38:05;;;;;;;0.20;0.20;;;3.70;99.90;;;;;;5036986;28;21250;-69
2022/03/03 08:40:32;;;;;;;0.20;0.20;;;;;;;;;;5030945;28;20614;-67
2022/03/03 08:43:01;;;;;;;0.10;0.10;;;3.70;99.90;;;;;;5050601;28;20609;-69
2022/03/03 08:45:29;;;;;;;0.10;0.10;;;;;;;;;;5050257;28;20611;-68
2022/03/03 08:47:58;;;;;;;0.20;0.20;;;;;;;;;;5038359;28;20685;-67
2022/03/03 08:50:28;;;;;;;0.20;0.20;;;;;;;;;;5038091;28;20621;-66
2022/03/03 08:52:56;;;;;;;0.20;0.20;;;;;;;;;;5041199;28;20673;-66
2022/03/03 08:55:24;;;;;;;0.10;0.10;;;;;;;;;;5040092;28;20719;-65
2022/03/03 08:57:51;;;;;;;0.20;0.20;;;;;;;;;;5060823;28;20728;-69
2022/03/03 09:00:18;;;;;;;0.20;0.20;;;;;;;;;;5063152;28;20603;-69
2022/03/03 09:02:48;;;;;;;0.20;0.20;;;;;;;;;;5056831;28;20644;-66
2022/03/03 09:05:15;;;;;;;0.20;0.20;;;;;;;;;;5060774;28;20615;-68
2022/03/03 09:07:43;;;;;;;0.20;0.20;;;;;;;;;;5036823;28;20753;-64
2022/03/03 09:10:11;;;;;;;0.20;0.20;;;;;;;;;;5032673;28;20633;-67
2022/03/03 09:12:38;;;;;;;0.20;0.20;;;;;;;;;;5053364;28;20616;-66
2022/03/03 09:15:06;;;;;;;0.10;0.10;;;;;;;;;;5040719;28;20714;-64
2022/03/03 09:17:34;;;;;;;0.10;0.10;;;;;;;;;;5037452;28;20655;-66
2022/03/03 09:20:02;;;;;;;0.10;0.10;;;;;;;;;;5050786;28;20606;-62
2022/03/03 09:22:29;;;;;;;0.10;0.10;;;;;;;;;;5054259;28;20624;-66
2022/03/03 09:24:58;;;;;;;0.20;0.20;;;;;;;;;;5032338;28;20764;-65
2022/03/03 09:27:25;;;;;;;0.17;0.17;;;;;;;;;;5060275;28;20679;-67
2022/03/03 09:29:53;;;;;;;0.20;0.20;;;;;;;;;;5038027;28;20622;-65
2022/03/03 09:32:21;;;;;;;0.10;0.10;;;;;;;;;;5031967;28;20714;-65
2022/03/03 09:34:48;;;;;;;0.20;0.20;;;;;;;;;;5037863;28;20652;-68
2022/03/03 09:37:16;;;;;;;0.10;0.10;;;;;;;;;;5039234;28;20754;-66
2022/03/03 09:39:46;;;;;;;0.10;0.10;;;;;;;;;;5035748;28;21243;-67
2022/03/03 09:42:15;;;;;;;0.20;0.20;;;;;;;;;;5065870;28;20652;-66
2022/03/03 09:44:42;;;;;;;0.20;0.20;;;;;;;;;;5046678;28;20602;-68
2022/03/03 09:47:11;;;;;;;0.20;0.20;;;;;;;;;;5035241;28;20696;-66
2022/03/03 09:49:39;;;;;;;0.10;0.10;;;;;;;;;;5055071;28;20705;-67
2022/03/03 09:52:12;;;;;;;0.10;0.10;;;;;;;;;;5043574;28;20686;-66
2022/03/03 09:54:39;;;;;;;0.20;0.20;;;;;;;;;;5042707;28;20629;-69
2022/03/03 09:57:06;;;;;;;0.20;0.20;;;;;;;;;;5057505;28;20619;-64
2022/03/03 09:59:35;;;;;;;0.10;0.10;;;;;;;;;;5034586;28;20678;-63
2022/03/03 10:02:03;;;;;;;0.20;0.20;;;;;;;;;;5031904;28;20621;-63
2022/03/03 10:04:31;;;;;;;0.10;0.10;;;;;;;;;;5037396;28;20664;-63
2022/03/03 10:07:03;;;;;;;0.20;0.20;;;;;;;;;;5037185;28;20760;-64
2022/03/03 10:09:30;;;;;;;0.10;0.10;;;;;;;;;;5036688;28;20627;-64
2022/03/03 10:12:02;;;;;;;0.10;0.10;;;;;;;;;;5038916;28;21176;-67
2022/03/03 10:14:35;;;;;;;0.20;0.20;;;;;;;;;;5037619;28;20626;-69
2022/03/03 10:17:12;;;;;;;0.10;0.10;;;;;;;;;;5051824;28;20720;-63
2022/03/03 10:19:51;;;;;;;0.10;0.10;;;;;;;;;;5046954;28;20640;-63
2022/03/03 10:22:19;;;;;;;0.10;0.10;;;;;;;;;;5052288;28;20630;-65
2022/03/03 10:24:46;;;;;;;0.20;0.20;;;6.60;99.90;;;;;;5050845;28;20632;-64
2022/03/03 10:27:13;;;;;;;0.10;0.10;;;;;;;;;;5046263;28;20670;-66
2022/03/03 10:29:48;;;;;;;0.10;0.10;;;6.70;99.90;;;;;;5040943;28;20640;-67
2022/03/03 10:32:25;;;;;;;0.10;0.10;;;6.80;99.90;;;;;;5061063;28;20611;-65
2022/03/03 10:34:54;;;;;;;0.10;0.10;;;;;;;;;;5035029;28;20642;-64
2022/03/03 10:37:23;;;;;;;0.10;0.10;;;;;;;;;;5039420;28;20636;-66
2022/03/03 10:39:56;;;;;;;0.10;0.10;;;;;;;;;;5035834;28;20638;-66
2022/03/03 10:42:25;;;;;;;0.10;0.10;;;;;;;;;;5036079;28;20628;-65
2022/03/03 10:44:53;;;;;;;0.20;0.20;;;;;;;;;;5034091;28;20626;-66
2022/03/03 10:47:21;;;;;;;0.17;0.17;;;;;;;;;;5033499;28;20656;-67
2022/03/03 10:49:53;;;;;;;0.20;0.20;;;;;;;;;;5058018;28;20613;-67
2022/03/03 10:52:21;;;;;;;0.20;0.20;;;;;;;;;;5036281;28;20613;-68
2022/03/03 10:54:49;;;;;;;0.10;0.10;;;;;;;;;;5040143;28;20706;-69
2022/03/03 10:57:30;;;;;;;0.10;0.10;;;;;;;;;;5058915;28;20675;-69
2022/03/03 10:59:58;;;;;;;0.10;0.10;;;;;;;;;;5059814;28;21278;-67
2022/03/03 11:02:28;;;;;;;0.20;0.20;;;;;;;;;;5021016;28;20673;-68
2022/03/03 11:04:57;;;;;;;0.10;0.10;;;;;;;;;;5035923;28;20752;-68
2022/03/03 11:07:25;;;;;;;0.13;0.13;;;;;;;;;;5036694;28;20660;-70
2022/03/03 11:09:53;;;;;;;0.17;0.17;;;;;;;;;;5037715;28;20617;-68
2022/03/03 11:12:20;;;;;;;0.20;0.20;;;;;;;;;;5039363;28;20638;-68
2022/03/03 11:14:48;;;;;;;0.20;0.20;;;;;;;;;;5041508;28;20628;-68
2022/03/03 11:17:15;;;;;;;0.20;0.20;;;;;;;;;;5055008;28;21223;-68
2022/03/03 11:19:43;;;;;;;0.20;0.20;;;;;;;;;;5034712;28;20649;-67
2022/03/03 11:22:16;;;;;;;0.10;0.10;;;;;;;;;;5040048;28;20667;-64
2022/03/03 11:24:43;;;;;;;0.10;0.10;;;;;;;;;;5056549;28;20722;-64
2022/03/03 11:27:10;;;;;;;0.20;0.20;;;;;;;;;;5058477;28;21216;-65
2022/03/03 11:29:39;;;;;;;0.20;0.20;;;;;;;;;;5036368;28;20652;-65
2022/03/03 11:32:06;;;;;;;0.10;0.10;;;;;;;;;;5028385;28;21056;-65
2022/03/03 11:34:41;;;;;;;0.20;0.20;;;;;;;;;;5030468;28;20624;-65
2022/03/03 11:37:15;;;;;;;0.10;0.10;;;;;;;;;;5029132;28;20645;-65
2022/03/03 11:39:45;;;;;;;0.10;0.10;;;;;;;;;;5031252;28;20616;-66
2022/03/03 11:42:34;;;;;;;0.20;0.20;;;;;;;;;;5045270;28;20637;-64
2022/03/03 11:45:03;;;;;;;0.20;0.20;;;;;;;;;;5036222;28;20629;-66
2022/03/03 11:47:31;;;;;;;0.20;0.20;;;;;;;;;;5049713;28;20672;-65
2022/03/03 11:50:13;;;;;;;0.20;0.20;;;;;;;;;;5033674;28;20636;-65
2022/03/03 11:52:41;;;;;;;0.30;0.30;;;;;;;;;;5048606;28;20617;-65
2022/03/03 11:55:27;;;;;;;0.20;0.20;;;;;;;;;;5052237;28;20609;-65
2022/03/03 11:57:58;;;;;;;0.20;0.20;;;;;;;;;;5046249;28;20656;-68
2022/03/03 12:00:26;;;;;;;0.13;0.13;;;;;;;;;;5038966;28;20621;-69
2022/03/03 12:02:56;;;;;;;0.10;0.10;;;;;;;;;;5037455;28;20626;-71
2022/03/03 12:05:40;;;;;;;0.20;0.20;;;;;;;;;;5034988;28;20766;-66
2022/03/03 12:08:28;;;;;;;0.20;0.20;;;;;;;;;;5056762;28;20661;-68
2022/03/03 12:11:10;;;;;;;0.20;0.20;;;6.90;99.90;;;;;;5032449;28;20709;-66
2022/03/03 12:13:52;;;;;;;0.10;0.10;;;2.00;99.90;;;;;;5046173;28;20614;-66
2022/03/03 12:16:26;;;;;;;0.20;0.20;;;1.70;99.90;;;;;;5055395;28;20605;-66
2022/03/03 12:19:13;;;;;;;0.10;0.10;;;2.00;99.90;;;;;;5038694;28;20661;-65
2022/03/03 12:21:43;;;;;;;0.20;0.20;;;1.90;99.90;;;;;;5059289;28;20674;-68
2022/03/03 12:24:31;;;;;;;0.10;0.10;;;2.10;99.90;;;;;;5035199;28;20748;-66
2022/03/03 12:27:15;;;;;;;0.10;0.10;;;2.10;99.90;;;;;;5060055;28;20709;-66
2022/03/03 12:29:57;;;;;;;0.20;0.20;;;1.90;99.90;;;;;;5042133;28;20617;-68
2022/03/03 12:32:37;;;;;;;0.20;0.20;;;2.00;99.90;;;;;;5054548;28;20617;-67
2022/03/03 12:35:09;;;;;;;0.20;0.20;;;2.00;99.90;;;;;;5041941;28;20648;-67
2022/03/03 12:37:43;;;;;;;0.10;0.10;;;1.80;99.90;;;;;;5041053;28;20656;-69
2022/03/03 12:40:12;;;;;;;0.20;0.20;;;1.80;99.90;;;;;;5040777;28;20616;-64
2022/03/03 12:42:43;;;;;;;0.20;0.20;;;1.90;99.90;;;;;;5034955;28;20620;-63
2022/03/03 12:45:14;;;;;;;0.30;0.30;;;1.70;99.90;;;;;;5037557;28;20623;-65
2022/03/03 12:48:04;;;;;;;0.20;0.20;;;1.70;99.90;;;;;;5057354;28;20672;-65
2022/03/03 12:50:33;;;;;;;0.20;0.20;;;1.60;99.90;;;;;;5051829;28;20608;-65
2022/03/03 12:53:04;;;;;;;0.17;0.17;;;1.80;99.90;;;;;;5033533;28;20621;-64
2022/03/03 12:55:34;;;;;;;0.10;0.10;;;1.60;99.90;;;;;;5037757;28;21000;-67
2022/03/03 12:58:03;;;;;;;0.10;0.10;;;1.60;99.90;;;;;;5056409;28;20642;-70
2022/03/03 13:00:35;;;;;;;0.20;0.20;;;1.90;99.90;;;;;;5040601;28;20696;-64
2022/03/03 13:03:03;;;;;;;0.13;0.13;;;1.70;99.90;;;;;;5033742;28;20629;-64
2022/03/03 13:05:42;;;;;;;0.20;0.20;;;1.90;99.90;;;;;;5039061;28;20642;-63
2022/03/03 13:08:22;;;;;;;0.20;0.20;;;1.90;99.90;;;;;;5051450;28;20736;-65
2022/03/03 13:10:50;;;;;;;0.13;0.13;;;1.70;99.90;;;;;;5035277;28;20633;-65
2022/03/03 13:13:17;;;;;;;0.20;0.20;;;1.80;99.90;;;;;;5033610;28;20612;-66
2022/03/03 13:15:46;;;;;;;0.20;0.20;;;2.00;99.90;;;;;;5060665;28;21183;-70
2022/03/03 13:18:16;;;;;;;0.20;0.20;;;1.90;99.90;;;;;;5046733;28;20652;-64
2022/03/03 13:20:46;;;;;;;0.17;0.17;;;1.60;99.90;;;;;;5050627;28;21249;-64
2022/03/03 13:23:15;;;;;;;0.10;0.10;;;1.50;99.90;;;;;;5038706;28;20688;-67
2022/03/03 13:25:43;;;;;;;0.20;0.20;;;1.50;99.90;;;;;;5051599;28;20628;-68
2022/03/03 13:28:11;;;;;;;0.10;0.10;;;1.50;99.90;;;;;;5039400;28;20666;-67
2022/03/03 13:30:50;;;;;;;0.20;0.20;;;1.40;99.90;;;;;;5054558;28;20674;-68
2022/03/03 13:33:18;;;;;;;0.20;0.20;;;1.40;99.90;;;;;;5037869;28;20663;-64
2022/03/03 13:35:45;;;;;;;0.10;0.10;;;1.20;99.90;;;;;;5054624;28;20640;-67
2022/03/03 13:38:12;;;;;;;0.20;0.20;;;1.20;99.90;;;;;;5052282;28;20637;-65
2022/03/03 13:40:41;;;;;;;0.20;0.20;;;1.10;99.90;;;;;;5033694;28;20625;-70
2022/03/03 13:43:08;;;;;;;0.10;0.10;;;1.00;99.90;;;;;;5035952;28;20627;-67